Time;durP1;ratioP1;P1;durP2;ratioP2;P2;SDS_P1;SDS_P2;PMS_P1;PMS_P2;Temp;Humidity;BMP_temperature;BMP_pressure;BME280_temperature;BME280_humidity;BME280_pressure;Samples;Min_cycle;Max_cycle;Signal;HPM_P1;HPM_P2
2023/08/02 00:00:21;;;;;;;4.28;0.77;;;17.40;99.90;;;;;;5113541;28;20043;-73
2023/08/02 00:02:46;;;;;;;4.50;0.80;;;17.40;99.90;;;;;;5113898;28;20036;-73
2023/08/02 00:05:12;;;;;;;5.10;0.90;;;17.40;99.90;;;;;;5112676;28;20393;-74
2023/08/02 00:07:37;;;;;;;5.85;0.93;;;17.30;99.90;;;;;;5113386;28;20071;-73
2023/08/02 00:10:03;;;;;;;5.95;1.33;;;17.30;99.90;;;;;;5103802;28;20481;-73
2023/08/02 00:12:29;;;;;;;3.70;0.88;;;17.30;99.90;;;;;;5113501;28;20035;-73
2023/08/02 00:14:55;;;;;;;4.15;1.00;;;17.30;99.90;;;;;;5113048;28;20493;-73
2023/08/02 00:17:20;;;;;;;3.88;1.10;;;17.30;99.90;;;;;;5113380;28;20081;-73
2023/08/02 00:19:46;;;;;;;5.75;1.10;;;17.30;99.90;;;;;;5112335;28;20043;-73
2023/08/02 00:22:11;;;;;;;5.75;1.38;;;17.30;99.90;;;;;;5113655;28;20043;-73
2023/08/02 00:24:37;;;;;;;4.35;1.05;;;17.20;99.90;;;;;;5113098;28;20040;-73
2023/08/02 00:27:03;;;;;;;6.97;1.30;;;17.30;99.90;;;;;;5113904;28;20126;-73
2023/08/02 00:29:28;;;;;;;5.57;1.10;;;17.30;99.90;;;;;;5113457;28;20108;-73
2023/08/02 00:31:54;;;;;;;5.82;1.30;;;17.20;99.90;;;;;;5113569;28;20043;-73
2023/08/02 00:34:20;;;;;;;4.57;1.10;;;17.30;99.90;;;;;;5112976;28;20051;-73
2023/08/02 00:36:45;;;;;;;4.47;1.15;;;17.30;99.90;;;;;;5111760;28;20130;-73
2023/08/02 00:39:11;;;;;;;7.57;1.92;;;17.30;99.90;;;;;;5113743;28;20400;-73
2023/08/02 00:41:36;;;;;;;3.10;1.10;;;17.20;99.90;;;;;;5113488;28;20089;-73
2023/08/02 00:44:02;;;;;;;4.82;1.30;;;17.20;99.90;;;;;;5113293;28;20449;-73
2023/08/02 00:46:28;;;;;;;5.82;1.80;;;17.20;99.90;;;;;;5112328;28;20050;-73
2023/08/02 00:48:53;;;;;;;4.90;1.40;;;17.20;99.90;;;;;;5113492;28;20047;-73
2023/08/02 00:51:19;;;;;;;8.43;2.00;;;17.20;99.90;;;;;;5112701;28;20043;-73
2023/08/02 00:53:48;;;;;;;5.65;1.50;;;17.20;99.90;;;;;;5112378;28;20059;-73
2023/08/02 00:56:15;;;;;;;3.58;1.15;;;17.20;99.90;;;;;;5112674;28;20036;-73
2023/08/02 00:58:41;;;;;;;5.63;1.30;;;17.20;99.90;;;;;;5113155;28;20559;-73
2023/08/02 01:01:10;;;;;;;6.32;1.77;;;17.20;99.90;;;;;;5112760;28;20050;-73
2023/08/02 01:03:41;;;;;;;4.13;1.30;;;17.20;99.90;;;;;;5112553;28;20044;-73
2023/08/02 01:06:28;;;;;;;3.92;1.20;;;17.20;99.90;;;;;;5111930;28;20078;-73
2023/08/02 01:09:03;;;;;;;10.82;1.55;;;17.10;99.90;;;;;;5112321;28;20036;-73
2023/08/02 01:11:35;;;;;;;4.13;1.40;;;17.10;99.90;;;;;;5112437;28;20036;-75
2023/08/02 01:14:05;;;;;;;4.03;1.43;;;17.10;99.90;;;;;;5113174;28;20105;-75
2023/08/02 01:16:32;;;;;;;7.05;1.58;;;17.10;99.90;;;;;;5112485;28;20320;-73
2023/08/02 01:19:22;;;;;;;6.80;1.30;;;17.10;99.90;;;;;;5108313;28;20040;-73
2023/08/02 01:21:48;;;;;;;3.08;1.00;;;17.10;99.90;;;;;;5100911;28;20059;-73
2023/08/02 01:24:14;;;;;;;3.38;1.33;;;17.10;99.90;;;;;;5116094;28;20039;-73
2023/08/02 01:26:43;;;;;;;11.13;1.95;;;17.10;99.90;;;;;;5116840;28;20035;-73
2023/08/02 01:29:17;;;;;;;5.32;1.63;;;17.10;99.90;;;;;;5117607;28;20122;-73
2023/08/02 01:31:44;;;;;;;4.28;1.50;;;17.10;99.90;;;;;;5116161;28;20051;-73
2023/08/02 01:34:11;;;;;;;5.32;1.30;;;17.10;99.90;;;;;;5117030;28;20039;-73
2023/08/02 01:36:37;;;;;;;7.30;1.33;;;17.10;99.90;;;;;;5116546;28;20060;-73
2023/08/02 01:39:02;;;;;;;6.28;1.38;;;17.00;99.90;;;;;;5116894;28;20051;-73
2023/08/02 01:41:28;;;;;;;5.00;1.38;;;17.00;99.90;;;;;;5116424;28;20062;-73
2023/08/02 01:43:54;;;;;;;4.55;1.50;;;17.00;99.90;;;;;;5117050;28;20512;-73
2023/08/02 01:46:19;;;;;;;5.95;1.55;;;17.00;99.90;;;;;;5116356;28;20089;-73
2023/08/02 01:48:45;;;;;;;6.72;1.60;;;17.00;99.90;;;;;;5116455;28;20122;-73
2023/08/02 01:51:10;;;;;;;4.22;1.10;;;17.00;99.90;;;;;;5116164;28;20134;-73
2023/08/02 01:53:36;;;;;;;4.88;1.65;;;17.00;99.90;;;;;;5116625;28;20047;-73
2023/08/02 01:56:02;;;;;;;5.13;1.38;;;17.00;99.90;;;;;;5115973;28;20039;-73
2023/08/02 01:58:29;;;;;;;4.97;1.40;;;16.90;99.90;;;;;;5116721;28;20130;-73
2023/08/02 02:00:54;;;;;;;4.30;1.40;;;16.90;99.90;;;;;;5116203;28;20043;-73
2023/08/02 02:03:20;;;;;;;5.68;1.50;;;16.90;99.90;;;;;;5116127;28;20051;-73
2023/08/02 02:05:53;;;;;;;5.07;1.55;;;16.90;99.90;;;;;;5115256;28;20066;-73
2023/08/02 02:08:19;;;;;;;6.57;1.77;;;16.90;99.90;;;;;;5115855;27;20043;-73
2023/08/02 02:10:52;;;;;;;11.00;2.67;;;16.90;99.90;;;;;;5115989;28;20084;-73
2023/08/02 02:13:18;;;;;;;5.15;1.65;;;16.90;99.90;;;;;;5116510;28;20139;-73
2023/08/02 02:15:44;;;;;;;6.07;1.73;;;16.90;99.90;;;;;;5102465;28;20088;-73
2023/08/02 02:18:09;;;;;;;11.32;2.50;;;16.90;99.90;;;;;;5116131;28;20432;-73
2023/08/02 02:20:35;;;;;;;5.93;1.80;;;16.90;99.90;;;;;;5114947;28;20500;-73
2023/08/02 02:23:01;;;;;;;6.15;1.80;;;16.80;99.90;;;;;;5115710;28;20059;-73
2023/08/02 02:25:26;;;;;;;8.30;1.85;;;16.80;99.90;;;;;;5115794;28;20457;-73
2023/08/02 02:27:55;;;;;;;5.72;1.80;;;16.80;99.90;;;;;;5115599;28;20113;-73
2023/08/02 02:30:21;;;;;;;8.40;2.30;;;16.80;99.90;;;;;;5115272;28;20104;-73
2023/08/02 02:32:47;;;;;;;4.97;1.48;;;16.80;99.90;;;;;;5114078;28;20156;-73
2023/08/02 02:35:14;;;;;;;10.65;2.22;;;16.80;99.90;;;;;;5114228;28;20487;-74
2023/08/02 02:37:39;;;;;;;4.43;1.58;;;16.80;99.90;;;;;;5115308;28;20071;-73
2023/08/02 02:40:06;;;;;;;6.25;1.67;;;16.80;99.90;;;;;;5108377;28;20444;-73
2023/08/02 02:42:32;;;;;;;7.13;1.70;;;16.80;99.90;;;;;;5098981;28;20117;-73
2023/08/02 02:44:57;;;;;;;12.23;2.50;;;16.80;99.90;;;;;;5100517;28;20469;-74
2023/08/02 02:47:23;;;;;;;7.13;1.80;;;16.80;99.90;;;;;;5095262;28;20040;-73
2023/08/02 02:49:49;;;;;;;11.43;2.60;;;16.80;99.90;;;;;;5101834;28;20051;-74
2023/08/02 02:52:14;;;;;;;5.20;2.00;;;16.80;99.90;;;;;;5113133;28;20050;-74
2023/08/02 02:54:40;;;;;;;4.18;1.65;;;16.80;99.90;;;;;;5107006;28;20047;-74
2023/08/02 02:57:06;;;;;;;5.70;2.00;;;16.70;99.90;;;;;;5095075;28;20047;-73
2023/08/02 02:59:32;;;;;;;6.30;1.98;;;16.70;99.90;;;;;;5096945;28;20067;-73
2023/08/02 03:01:58;;;;;;;7.03;1.70;;;16.80;99.90;;;;;;5101464;28;20140;-73
2023/08/02 03:04:25;;;;;;;5.75;2.00;;;16.70;99.90;;;;;;5093594;28;20478;-73
2023/08/02 03:06:51;;;;;;;10.55;2.55;;;16.70;99.90;;;;;;5102170;28;20040;-73
2023/08/02 03:09:17;;;;;;;5.50;1.77;;;16.70;99.90;;;;;;5095378;28;20035;-74
2023/08/02 03:11:43;;;;;;;11.20;2.50;;;16.70;99.90;;;;;;5094889;28;20040;-73
2023/08/02 03:14:09;;;;;;;8.63;2.40;;;16.70;99.90;;;;;;5094837;28;20047;-73
2023/08/02 03:16:35;;;;;;;10.68;3.30;;;16.70;99.90;;;;;;5094982;28;20130;-73
2023/08/02 03:19:00;;;;;;;14.23;3.53;;;16.70;99.90;;;;;;5109143;28;20100;-73
2023/08/02 03:21:26;;;;;;;10.00;2.70;;;16.70;99.90;;;;;;5114996;28;20481;-73
2023/08/02 03:23:52;;;;;;;9.05;3.03;;;16.70;99.90;;;;;;5115104;28;20050;-73
2023/08/02 03:26:17;;;;;;;6.05;1.77;;;16.70;99.90;;;;;;5114452;28;20035;-73
2023/08/02 03:28:43;;;;;;;12.98;2.85;;;16.70;99.90;;;;;;5114793;28;20040;-73
2023/08/02 03:31:08;;;;;;;9.25;2.40;;;16.70;99.90;;;;;;5113285;28;20040;-73
2023/08/02 03:33:34;;;;;;;7.03;2.35;;;16.70;99.90;;;;;;5114149;28;20040;-73
2023/08/02 03:36:00;;;;;;;15.73;3.70;;;16.70;99.90;;;;;;5114541;28;20055;-73
2023/08/02 03:38:25;;;;;;;14.27;3.67;;;16.70;99.90;;;;;;5113232;28;20093;-73
2023/08/02 03:40:51;;;;;;;9.98;3.40;;;16.70;99.90;;;;;;5114276;28;20054;-73
2023/08/02 03:43:17;;;;;;;12.82;3.63;;;16.60;99.90;;;;;;5114584;28;20497;-73
2023/08/02 03:45:43;;;;;;;8.65;2.80;;;16.70;99.90;;;;;;5114027;28;20177;-73
2023/08/02 03:48:08;;;;;;;9.38;3.30;;;16.60;99.90;;;;;;5113997;28;20047;-73
2023/08/02 03:50:34;;;;;;;11.50;3.05;;;16.60;99.90;;;;;;5113817;28;20493;-73
2023/08/02 03:53:00;;;;;;;10.45;2.88;;;16.60;99.90;;;;;;5114529;28;20044;-73
2023/08/02 03:55:26;;;;;;;13.20;4.20;;;16.60;99.90;;;;;;5112571;28;20039;-73
2023/08/02 03:57:52;;;;;;;9.27;3.08;;;16.60;99.90;;;;;;5114195;28;20079;-73
2023/08/02 04:00:17;;;;;;;9.63;3.47;;;16.60;99.90;;;;;;5113789;28;20039;-73
2023/08/02 04:02:43;;;;;;;13.40;3.95;;;16.60;99.90;;;;;;5113584;28;20039;-73
2023/08/02 04:05:10;;;;;;;12.90;3.95;;;16.60;99.90;;;;;;5113659;28;20083;-73
2023/08/02 04:07:36;;;;;;;11.50;3.85;;;16.60;99.90;;;;;;5113886;28;20451;-73
2023/08/02 04:10:02;;;;;;;11.27;4.22;;;16.60;99.90;;;;;;5114116;28;20039;-73
2023/08/02 04:12:27;;;;;;;10.73;3.08;;;16.50;99.90;;;;;;5112949;28;20481;-73
2023/08/02 04:14:54;;;;;;;11.07;3.45;;;16.50;99.90;;;;;;5113605;28;20054;-73
2023/08/02 04:17:20;;;;;;;9.85;3.15;;;16.50;99.90;;;;;;5113090;28;20071;-73
2023/08/02 04:19:46;;;;;;;10.75;3.33;;;16.50;99.90;;;;;;5113221;28;20086;-73
2023/08/02 04:22:11;;;;;;;8.23;3.03;;;16.50;99.90;;;;;;5113629;28;20056;-73
2023/08/02 04:24:37;;;;;;;10.50;3.20;;;16.50;99.90;;;;;;5113538;28;20036;-73
2023/08/02 04:27:03;;;;;;;12.60;3.90;;;16.50;99.90;;;;;;5113651;28;20405;-73
2023/08/02 04:29:29;;;;;;;9.27;3.40;;;16.40;99.90;;;;;;5112976;28;20516;-73
2023/08/02 04:31:55;;;;;;;9.32;2.95;;;16.40;99.90;;;;;;5112395;28;20032;-73
2023/08/02 04:34:21;;;;;;;7.85;2.80;;;16.40;99.90;;;;;;5113118;28;20062;-73
2023/08/02 04:36:46;;;;;;;10.30;3.20;;;16.40;99.90;;;;;;5113615;28;20382;-73
2023/08/02 04:39:12;;;;;;;9.30;3.50;;;16.40;99.90;;;;;;5113754;28;20455;-73
2023/08/02 04:41:38;;;;;;;12.57;3.67;;;16.40;99.90;;;;;;5112974;28;20066;-73
2023/08/02 04:44:03;;;;;;;10.50;3.30;;;16.40;99.90;;;;;;5113365;27;20127;-73
2023/08/02 04:46:29;;;;;;;8.70;3.40;;;16.40;99.90;;;;;;5112845;28;20539;-73
2023/08/02 04:48:55;;;;;;;10.15;3.45;;;16.40;99.90;;;;;;5113379;28;20054;-73
2023/08/02 04:51:21;;;;;;;9.00;3.72;;;16.40;99.90;;;;;;5112106;28;20059;-73
2023/08/02 04:53:49;;;;;;;7.65;3.05;;;16.30;99.90;;;;;;5113570;28;20048;-73
2023/08/02 04:56:16;;;;;;;11.80;3.60;;;16.30;99.90;;;;;;5112505;28;20043;-74
2023/08/02 04:58:42;;;;;;;9.38;3.38;;;16.30;99.90;;;;;;5112466;28;20044;-73
2023/08/02 05:01:07;;;;;;;11.95;3.95;;;16.30;99.90;;;;;;5112846;28;20051;-73
2023/08/02 05:03:34;;;;;;;11.75;4.00;;;16.30;99.90;;;;;;5112983;28;20398;-73
2023/08/02 05:06:01;;;;;;;8.40;3.00;;;16.30;99.90;;;;;;5112438;28;20044;-72
2023/08/02 05:08:32;;;;;;;8.52;3.47;;;16.30;99.90;;;;;;5113508;28;20150;-73
2023/08/02 05:10:58;;;;;;;7.30;3.17;;;16.20;99.90;;;;;;5113253;28;20048;-73
2023/08/02 05:13:25;;;;;;;9.48;3.40;;;16.30;99.90;;;;;;5112875;28;20055;-73
2023/08/02 05:15:51;;;;;;;14.85;4.55;;;16.30;99.90;;;;;;5112519;28;20054;-73
2023/08/02 05:18:17;;;;;;;8.13;3.13;;;16.30;99.90;;;;;;5113168;28;20092;-73
2023/08/02 05:20:43;;;;;;;10.70;3.53;;;16.20;99.90;;;;;;5112889;28;20459;-72
2023/08/02 05:23:08;;;;;;;9.15;3.38;;;16.20;99.90;;;;;;5113274;28;20035;-73
2023/08/02 05:25:37;;;;;;;9.73;3.60;;;16.30;99.90;;;;;;5112393;28;20040;-73
2023/08/02 05:28:03;;;;;;;10.02;3.17;;;16.20;99.90;;;;;;5113095;28;20536;-72
2023/08/02 05:30:29;;;;;;;9.20;4.00;;;16.20;99.90;;;;;;5112307;28;20129;-73
2023/08/02 05:32:56;;;;;;;8.77;3.58;;;16.30;99.90;;;;;;5112466;28;20035;-73
2023/08/02 05:35:25;;;;;;;8.60;3.38;;;16.30;99.90;;;;;;5107595;28;20059;-73
2023/08/02 05:37:54;;;;;;;11.32;4.07;;;16.30;99.90;;;;;;5100214;28;20523;-73
2023/08/02 05:40:20;;;;;;;11.05;3.95;;;16.20;99.90;;;;;;5092928;28;20075;-73
2023/08/02 05:42:48;;;;;;;9.80;4.20;;;16.20;99.90;;;;;;5096091;28;20998;-73
2023/08/02 05:45:14;;;;;;;10.07;4.03;;;16.30;99.90;;;;;;5109032;28;20081;-72
2023/08/02 05:47:40;;;;;;;7.47;3.28;;;16.20;99.90;;;;;;5092717;28;20048;-73
2023/08/02 05:50:06;;;;;;;8.95;3.92;;;16.30;99.90;;;;;;5103817;28;20104;-73
2023/08/02 05:52:32;;;;;;;8.93;3.70;;;16.30;99.90;;;;;;5112360;28;20075;-73
2023/08/02 05:54:57;;;;;;;8.68;3.97;;;16.30;99.90;;;;;;5112972;28;20083;-73
2023/08/02 05:57:23;;;;;;;12.25;4.43;;;16.30;99.90;;;;;;5111827;28;20044;-73
2023/08/02 05:59:49;;;;;;;10.93;4.72;;;16.30;99.90;;;;;;5113318;28;20097;-73
2023/08/02 06:02:15;;;;;;;9.95;3.97;;;16.30;99.90;;;;;;5111643;28;20094;-73
2023/08/02 06:04:43;;;;;;;10.45;3.88;;;16.30;99.90;;;;;;5112510;28;20078;-73
2023/08/02 06:07:09;;;;;;;11.23;4.53;;;16.30;99.90;;;;;;5102438;28;20047;-72
2023/08/02 06:09:34;;;;;;;9.15;4.38;;;16.30;99.90;;;;;;5115804;28;20035;-73
2023/08/02 06:12:00;;;;;;;16.05;4.60;;;16.40;99.90;;;;;;5115783;28;20036;-74
2023/08/02 06:14:26;;;;;;;12.00;5.07;;;16.40;99.90;;;;;;5114259;27;20119;-74
2023/08/02 06:16:52;;;;;;;9.23;4.57;;;16.40;99.90;;;;;;5115579;28;20031;-73
2023/08/02 06:19:18;;;;;;;11.38;5.07;;;16.40;99.90;;;;;;5115464;28;20055;-73
2023/08/02 06:21:43;;;;;;;11.68;4.72;;;16.40;99.90;;;;;;5115785;28;20035;-73
2023/08/02 06:24:09;;;;;;;11.10;5.00;;;16.40;99.90;;;;;;5116007;28;20080;-74
2023/08/02 06:26:35;;;;;;;12.00;4.32;;;16.40;99.90;;;;;;5115386;28;20447;-73
2023/08/02 06:29:00;;;;;;;10.25;4.60;;;16.40;99.90;;;;;;5115354;28;20054;-74
2023/08/02 06:31:29;;;;;;;8.88;3.90;;;16.40;99.90;;;;;;5115315;28;20123;-73
2023/08/02 06:33:54;;;;;;;13.10;4.50;;;16.40;99.90;;;;;;5115375;28;20102;-73
2023/08/02 06:36:20;;;;;;;10.65;4.47;;;16.40;99.90;;;;;;5115630;28;20483;-73
2023/08/02 06:38:46;;;;;;;9.38;4.45;;;16.50;99.90;;;;;;5115914;28;20496;-73
2023/08/02 06:41:12;;;;;;;13.88;4.25;;;16.50;99.90;;;;;;5114764;28;20044;-73
2023/08/02 06:43:38;;;;;;;12.18;4.13;;;16.50;99.90;;;;;;5115687;28;20054;-73
2023/08/02 06:46:05;;;;;;;8.88;3.85;;;16.50;99.90;;;;;;5114927;28;20477;-73
2023/08/02 06:48:31;;;;;;;10.02;4.07;;;16.50;99.90;;;;;;5115790;28;20048;-73
2023/08/02 06:50:57;;;;;;;10.00;4.20;;;16.50;99.90;;;;;;5114568;28;20043;-73
2023/08/02 06:53:23;;;;;;;10.45;4.65;;;16.50;99.90;;;;;;5108857;28;20043;-73
2023/08/02 06:55:49;;;;;;;10.60;4.10;;;16.50;99.90;;;;;;5114480;28;20113;-73
2023/08/02 06:58:15;;;;;;;8.40;3.53;;;16.60;99.90;;;;;;5115042;28;20078;-73
2023/08/02 07:00:41;;;;;;;10.93;3.90;;;16.60;99.90;;;;;;5114335;28;20039;-73
2023/08/02 07:03:07;;;;;;;10.80;4.07;;;16.60;99.90;;;;;;5115178;28;20092;-73
2023/08/02 07:05:34;;;;;;;9.10;4.38;;;16.60;99.90;;;;;;5112881;28;20043;-73
2023/08/02 07:08:01;;;;;;;10.80;4.18;;;16.60;99.90;;;;;;5113156;28;20126;-73
2023/08/02 07:10:27;;;;;;;11.55;3.80;;;16.60;99.90;;;;;;5110460;28;20039;-74
2023/08/02 07:12:53;;;;;;;9.10;3.63;;;16.60;99.90;;;;;;5099767;28;20076;-73
2023/08/02 07:15:19;;;;;;;11.20;4.25;;;16.60;99.90;;;;;;5111505;28;20078;-73
2023/08/02 07:17:45;;;;;;;7.43;3.38;;;16.60;99.90;;;;;;5115122;28;20071;-73
2023/08/02 07:20:12;;;;;;;10.65;4.30;;;16.60;99.90;;;;;;5114597;28;20405;-73
2023/08/02 07:22:39;;;;;;;11.50;4.30;;;16.60;99.90;;;;;;5115023;28;20439;-73
2023/08/02 07:25:05;;;;;;;8.20;3.55;;;16.60;99.90;;;;;;5113455;28;20043;-74
2023/08/02 07:27:31;;;;;;;9.82;3.63;;;16.60;99.90;;;;;;5100205;28;20048;-73
2023/08/02 07:29:56;;;;;;;8.40;3.70;;;16.60;99.90;;;;;;5102745;28;20131;-73
2023/08/02 07:32:23;;;;;;;9.43;4.03;;;16.60;99.90;;;;;;5094469;28;20032;-73
2023/08/02 07:34:49;;;;;;;10.82;3.78;;;16.60;99.90;;;;;;5100706;28;20119;-73
2023/08/02 07:37:14;;;;;;;10.27;4.05;;;16.60;99.90;;;;;;5103888;28;20171;-73
2023/08/02 07:39:40;;;;;;;8.38;3.35;;;16.60;99.90;;;;;;5107360;28;20036;-73
2023/08/02 07:42:09;;;;;;;7.78;3.38;;;16.60;99.90;;;;;;5111297;28;20155;-73
2023/08/02 07:44:37;;;;;;;10.68;3.80;;;16.70;99.90;;;;;;5101387;28;20159;-73
2023/08/02 07:47:03;;;;;;;8.98;3.60;;;16.70;99.90;;;;;;5108419;28;20050;-73
2023/08/02 07:49:30;;;;;;;9.27;3.60;;;16.70;99.90;;;;;;5111140;28;20055;-72
2023/08/02 07:51:56;;;;;;;11.80;3.72;;;16.70;99.90;;;;;;5105152;28;20032;-72
2023/08/02 07:54:22;;;;;;;8.50;3.60;;;16.70;99.90;;;;;;5105153;28;20070;-72
2023/08/02 07:56:47;;;;;;;10.23;3.80;;;16.70;99.90;;;;;;5093833;28;20047;-73
2023/08/02 07:59:13;;;;;;;10.07;3.65;;;16.70;99.90;;;;;;5106500;28;20036;-72
2023/08/02 08:01:41;;;;;;;10.07;3.53;;;16.70;99.90;;;;;;5106870;28;20050;-72
2023/08/02 08:04:07;;;;;;;10.05;3.45;;;16.70;99.90;;;;;;5111189;28;20071;-72
2023/08/02 08:06:33;;;;;;;8.40;3.40;;;16.70;99.90;;;;;;5112870;28;20075;-72
2023/08/02 08:08:58;;;;;;;10.80;3.22;;;16.70;99.90;;;;;;5112169;28;20036;-72
2023/08/02 08:11:27;;;;;;;7.82;3.25;;;16.70;99.90;;;;;;5108824;28;20068;-72
2023/08/02 08:13:53;;;;;;;7.32;3.45;;;16.70;99.90;;;;;;5112590;28;20437;-72
2023/08/02 08:16:19;;;;;;;8.18;3.47;;;16.70;99.90;;;;;;5111398;28;20078;-72
2023/08/02 08:18:44;;;;;;;7.32;3.05;;;16.70;99.90;;;;;;5113246;28;20104;-72
2023/08/02 08:21:10;;;;;;;10.30;3.53;;;16.70;99.90;;;;;;5112852;28;20079;-72
2023/08/02 08:23:36;;;;;;;9.10;3.20;;;16.60;99.90;;;;;;5112395;28;20036;-72
2023/08/02 08:26:02;;;;;;;8.10;3.25;;;16.70;99.90;;;;;;5113719;28;20048;-72
2023/08/02 08:28:28;;;;;;;10.75;3.40;;;16.70;99.90;;;;;;5112875;28;20039;-72
2023/08/02 08:31:04;;;;;;;7.95;2.72;;;16.70;99.90;;;;;;5113144;28;20047;-72
2023/08/02 08:33:30;;;;;;;7.85;2.90;;;16.70;99.90;;;;;;5112714;28;20040;-72
2023/08/02 08:35:56;;;;;;;6.95;2.85;;;16.70;99.90;;;;;;5113477;28;20043;-72
2023/08/02 08:38:22;;;;;;;11.75;3.33;;;16.60;99.90;;;;;;5113749;28;20095;-73
2023/08/02 08:40:56;;;;;;;6.00;3.00;;;16.70;99.90;;;;;;5113646;28;20071;-72
2023/08/02 08:43:28;;;;;;;6.68;2.60;;;16.60;99.90;;;;;;5111648;28;20047;-72
2023/08/02 08:45:54;;;;;;;7.85;3.55;;;16.60;99.90;;;;;;5113551;28;20130;-72
2023/08/02 08:48:21;;;;;;;7.30;2.83;;;16.70;99.90;;;;;;5113434;28;20451;-72
2023/08/02 08:50:49;;;;;;;10.38;3.30;;;16.60;99.90;;;;;;5113731;28;20119;-72
2023/08/02 08:53:21;;;;;;;8.95;3.25;;;16.60;99.90;;;;;;5113554;28;20485;-72
2023/08/02 08:55:49;;;;;;;7.88;3.13;;;16.60;99.90;;;;;;5112444;28;20043;-72
2023/08/02 08:58:16;;;;;;;7.82;3.10;;;16.60;99.90;;;;;;5113468;28;20054;-72
2023/08/02 09:00:44;;;;;;;7.45;3.40;;;16.60;99.90;;;;;;5113309;28;20493;-72
2023/08/02 09:03:12;;;;;;;6.65;3.00;;;16.70;99.90;;;;;;5113498;28;20040;-72
2023/08/02 09:05:39;;;;;;;9.07;3.33;;;16.60;99.90;;;;;;5113373;28;20056;-72
2023/08/02 09:08:05;;;;;;;7.95;3.15;;;16.60;99.90;;;;;;5113460;28;20043;-72
2023/08/02 09:10:32;;;;;;;7.43;2.90;;;16.70;99.90;;;;;;5113391;28;20047;-72
2023/08/02 09:12:58;;;;;;;6.55;2.95;;;16.60;99.90;;;;;;5113344;28;20050;-72
2023/08/02 09:15:24;;;;;;;10.80;3.72;;;16.60;99.90;;;;;;5111992;28;20493;-72
2023/08/02 09:17:51;;;;;;;8.95;3.58;;;16.60;99.90;;;;;;5113454;28;20058;-72
2023/08/02 09:20:19;;;;;;;8.70;3.30;;;16.70;99.90;;;;;;5113283;28;20054;-72
2023/08/02 09:22:45;;;;;;;7.93;3.50;;;16.70;99.90;;;;;;5113205;28;20042;-72
2023/08/02 09:25:24;;;;;;;9.75;3.88;;;16.60;99.90;;;;;;5112203;28;20051;-72
2023/08/02 09:27:51;;;;;;;8.48;3.63;;;16.60;99.90;;;;;;5093446;28;20043;-73
2023/08/02 09:30:29;;;;;;;8.95;3.55;;;16.60;99.90;;;;;;5112939;28;20046;-72
2023/08/02 09:33:05;;;;;;;7.68;3.30;;;16.70;99.90;;;;;;5111172;28;20048;-72
2023/08/02 09:35:33;;;;;;;5.78;2.92;;;16.70;99.90;;;;;;5111361;28;20055;-72
2023/08/02 09:37:59;;;;;;;6.97;3.55;;;16.70;99.90;;;;;;5113110;28;20048;-72
2023/08/02 09:40:37;;;;;;;7.68;3.33;;;16.70;99.90;;;;;;5112107;28;20048;-72
2023/08/02 09:43:04;;;;;;;7.82;3.40;;;16.70;99.90;;;;;;5115408;28;20392;-72
2023/08/02 09:45:33;;;;;;;7.03;2.83;;;16.70;99.90;;;;;;5116708;28;20063;-72
2023/08/02 09:48:00;;;;;;;7.15;3.22;;;16.70;99.90;;;;;;5116320;28;20050;-72
2023/08/02 09:50:27;;;;;;;7.78;3.28;;;16.80;99.90;;;;;;5116160;28;20039;-72
2023/08/02 09:52:53;;;;;;;6.88;2.90;;;16.70;99.90;;;;;;5115139;28;20043;-73
2023/08/02 09:55:20;;;;;;;5.95;2.72;;;16.80;99.90;;;;;;5106080;28;20131;-73
2023/08/02 09:57:47;;;;;;;7.53;3.03;;;16.80;99.90;;;;;;5108797;28;20082;-72
2023/08/02 10:00:14;;;;;;;7.00;2.72;;;16.80;99.90;;;;;;5114774;28;20398;-73
2023/08/02 10:02:40;;;;;;;5.50;2.30;;;16.80;99.90;;;;;;5107801;28;20385;-72
2023/08/02 10:05:07;;;;;;;5.68;2.63;;;16.80;99.90;;;;;;5098865;28;20186;-72
2023/08/02 10:07:39;;;;;;;5.32;2.58;;;16.80;99.90;;;;;;5115226;28;20105;-72
2023/08/02 10:10:08;;;;;;;4.95;2.60;;;16.80;99.90;;;;;;5112652;28;20092;-72
2023/08/02 10:12:37;;;;;;;6.43;2.70;;;16.80;99.90;;;;;;5096638;28;20501;-73
2023/08/02 10:15:03;;;;;;;6.13;2.78;;;16.80;99.90;;;;;;5107334;28;20085;-72
2023/08/02 10:17:31;;;;;;;6.25;2.65;;;16.90;99.90;;;;;;5109004;28;20035;-73
2023/08/02 10:19:59;;;;;;;4.57;2.10;;;16.90;99.90;;;;;;5114578;28;20075;-73
2023/08/02 10:22:26;;;;;;;4.30;2.10;;;16.90;99.90;;;;;;5094698;28;20486;-73
2023/08/02 10:24:52;;;;;;;5.60;2.15;;;16.90;99.90;;;;;;5105731;28;20052;-72
2023/08/02 10:27:19;;;;;;;4.55;2.10;;;16.90;99.90;;;;;;5112039;28;20047;-72
2023/08/02 10:29:47;;;;;;;4.72;2.13;;;16.90;99.90;;;;;;5111663;28;20047;-73
2023/08/02 10:32:18;;;;;;;4.57;2.00;;;17.00;99.90;;;;;;5108806;28;20039;-73
2023/08/02 10:34:50;;;;;;;4.88;2.10;;;17.00;99.90;;;;;;5100808;28;20493;-73
2023/08/02 10:42:30;;;;;;;4.18;1.98;;;17.00;99.90;;;;;;5111913;22;20073;-80
2023/08/02 10:44:56;;;;;;;4.13;1.50;;;17.00;99.90;;;;;;4997900;28;20622;-80
2023/08/02 10:47:25;;;;;;;2.92;1.42;;;17.10;99.90;;;;;;5013528;28;20133;-80
2023/08/02 10:49:51;;;;;;;2.72;1.30;;;17.10;99.90;;;;;;4997231;28;20068;-79
2023/08/02 10:52:38;;;;;;;2.95;1.40;;;17.10;99.90;;;;;;5011089;28;20046;-80
2023/08/02 10:55:10;;;;;;;3.33;1.27;;;17.10;99.90;;;;;;5006835;28;20044;-80
2023/08/02 10:57:37;;;;;;;2.40;1.20;;;17.10;99.90;;;;;;5012953;28;20050;-80
2023/08/02 11:00:14;;;;;;;2.95;1.40;;;17.10;99.90;;;;;;5005689;28;20403;-80
2023/08/02 11:02:47;;;;;;;3.13;1.05;;;17.10;99.90;;;;;;5009921;28;20180;-80
2023/08/02 11:05:16;;;;;;;3.15;1.02;;;17.20;99.90;;;;;;5013436;28;20046;-80
2023/08/02 11:07:42;;;;;;;3.17;1.20;;;17.20;99.90;;;;;;5012744;28;20052;-80
2023/08/02 11:10:08;;;;;;;2.40;1.30;;;17.20;99.90;;;;;;5014103;28;20042;-80
2023/08/02 11:12:34;;;;;;;2.05;1.00;;;17.30;99.90;;;;;;5005647;28;20538;-80
2023/08/02 11:15:00;;;;;;;2.05;1.00;;;17.30;99.90;;;;;;5004389;28;20045;-80
2023/08/02 11:17:26;;;;;;;2.13;1.10;;;17.30;99.90;;;;;;5012689;28;20419;-80
2023/08/02 11:19:54;;;;;;;2.67;0.98;;;17.30;99.90;;;;;;5014274;28;20522;-80
2023/08/02 11:22:20;;;;;;;1.92;0.90;;;17.30;99.90;;;;;;5014126;28;20084;-80
2023/08/02 11:24:50;;;;;;;2.17;1.08;;;17.30;99.90;;;;;;5010068;28;20077;-80
2023/08/02 11:27:23;;;;;;;2.60;1.00;;;17.30;99.90;;;;;;5014626;28;20054;-80
2023/08/02 11:29:59;;;;;;;3.08;1.10;;;17.40;99.90;;;;;;5015051;28;20045;-80
2023/08/02 11:32:26;;;;;;;2.60;0.98;;;17.40;99.90;;;;;;5014129;28;20057;-80
2023/08/02 11:34:52;;;;;;;2.40;1.02;;;17.40;99.90;;;;;;5012644;28;20041;-80
2023/08/02 11:37:19;;;;;;;1.67;1.00;;;17.40;99.90;;;;;;5014499;28;20132;-80
2023/08/02 11:39:56;;;;;;;2.47;0.90;;;17.50;99.90;;;;;;5013325;28;20056;-80
2023/08/02 11:42:22;;;;;;;3.38;0.90;;;17.50;99.90;;;;;;5013456;28;20503;-80
2023/08/02 11:44:48;;;;;;;1.52;0.80;;;17.60;99.90;;;;;;5012212;28;20125;-79
2023/08/02 11:47:13;;;;;;;1.60;0.90;;;17.60;99.90;;;;;;5013071;28;20133;-80
2023/08/02 11:49:55;;;;;;;1.88;0.93;;;17.60;99.90;;;;;;5013790;28;20046;-80
2023/08/02 11:52:25;;;;;;;2.15;1.00;;;17.70;99.90;;;;;;5013727;28;20037;-80
2023/08/02 11:54:51;;;;;;;1.77;1.10;;;17.80;99.90;;;;;;5017568;28;20132;-80
2023/08/02 11:57:17;;;;;;;3.70;1.30;;;17.80;99.90;;;;;;5014394;28;20045;-80
2023/08/02 11:59:44;;;;;;;4.13;1.50;;;17.90;99.90;;;;;;5013537;28;20623;-80
2023/08/02 12:02:30;;;;;;;2.65;1.30;;;17.90;99.90;;;;;;5014137;28;20081;-80
2023/08/02 12:04:58;;;;;;;2.30;1.30;;;18.00;99.90;;;;;;5013383;28;20056;-80
2023/08/02 12:07:30;;;;;;;2.58;1.35;;;18.00;99.90;;;;;;5014334;28;20419;-80
2023/08/02 12:09:56;;;;;;;2.97;1.52;;;18.10;99.90;;;;;;5014138;28;20061;-80
2023/08/02 12:12:28;;;;;;;3.00;1.40;;;18.10;99.90;;;;;;5013961;28;20058;-80
2023/08/02 12:14:53;;;;;;;3.17;1.55;;;18.20;99.90;;;;;;5014064;28;20115;-80
2023/08/02 12:17:21;;;;;;;3.08;1.90;;;18.20;99.90;;;;;;5012863;28;20499;-80
2023/08/02 12:19:48;;;;;;;3.45;1.88;;;18.20;99.90;;;;;;5014043;28;20045;-80
2023/08/02 12:22:14;;;;;;;3.20;1.83;;;18.30;99.90;;;;;;5013738;28;20038;-80
2023/08/02 12:24:40;;;;;;;3.83;1.90;;;18.30;99.90;;;;;;5013976;28;20080;-80
2023/08/02 12:27:17;;;;;;;6.93;2.20;;;18.40;99.90;;;;;;5013772;28;20050;-80
2023/08/02 12:29:43;;;;;;;3.15;1.70;;;18.40;99.90;;;;;;5013081;28;20103;-80
2023/08/02 12:32:11;;;;;;;6.82;2.00;;;18.40;99.90;;;;;;5013895;28;20052;-80
2023/08/02 12:34:37;;;;;;;2.90;1.83;;;18.50;99.90;;;;;;5013855;28;20103;-80
2023/08/02 12:37:04;;;;;;;3.53;2.10;;;18.50;99.90;;;;;;5013936;28;20045;-80
2023/08/02 12:39:29;;;;;;;2.60;1.67;;;18.60;99.90;;;;;;5013885;28;20050;-80
2023/08/02 12:41:55;;;;;;;3.53;1.85;;;18.60;99.90;;;;;;5012432;28;20057;-80
2023/08/02 12:44:21;;;;;;;5.65;2.90;;;18.70;99.90;;;;;;5013696;28;20053;-80
2023/08/02 12:46:47;;;;;;;4.40;2.45;;;18.70;99.90;;;;;;4996278;28;20045;-80